Time;durP1;ratioP1;P1;durP2;ratioP2;P2;SDS_P1;SDS_P2;PMS_P1;PMS_P2;Temp;Humidity;BMP_temperature;BMP_pressure;BME280_temperature;BME280_humidity;BME280_pressure;Samples;Min_cycle;Max_cycle;Signal;HPM_P1;HPM_P2
2023/01/24 00:02:24;;;;;;;63.63;48.25;;;;;;;-4.26;99.41;96483.75;5076381;28;20128;-68
2023/01/24 00:04:49;;;;;;;53.20;40.00;;;;;;;-4.29;100.00;96476.94;5084353;28;20028;-68
2023/01/24 00:07:14;;;;;;;56.83;41.85;;;;;;;-4.42;100.00;96472.91;5081310;28;20024;-68
2023/01/24 00:09:40;;;;;;;62.20;46.47;;;;;;;-4.45;100.00;96478.97;5064583;28;20409;-68
2023/01/24 00:12:05;;;;;;;58.30;44.53;;;;;;;-4.43;100.00;96486.63;5086032;28;20032;-68
2023/01/24 00:14:30;;;;;;;46.60;37.38;;;;;;;-4.44;100.00;96478.09;5074012;28;20031;-68
2023/01/24 00:16:56;;;;;;;44.47;37.00;;;;;;;-4.44;100.00;96479.81;5078924;28;20024;-61
2023/01/24 00:19:21;;;;;;;41.67;36.03;;;;;;;-4.48;100.00;96494.47;5076434;28;20036;-68
2023/01/24 00:21:46;;;;;;;64.78;41.67;;;;;;;-4.50;100.00;96488.50;5081317;28;20054;-73
2023/01/24 00:24:12;;;;;;;87.55;48.90;;;;;;;-4.48;100.00;96489.31;5080388;28;20056;-73
2023/01/24 00:26:37;;;;;;;72.32;39.75;;;;;;;-4.53;99.94;96478.25;5083012;28;20053;-73
2023/01/24 00:29:02;;;;;;;50.13;32.42;;;;;;;-4.47;100.00;96481.56;5078015;28;20024;-73
2023/01/24 00:31:28;;;;;;;44.13;33.00;;;;;;;-4.57;100.00;96474.91;5078604;28;20056;-72
2023/01/24 00:33:53;;;;;;;32.75;28.60;;;;;;;-4.65;100.00;96482.78;5077359;28;20512;-72
2023/01/24 00:36:19;;;;;;;32.10;28.42;;;;;;;-4.72;100.00;96486.34;5079625;28;20478;-61
2023/01/24 00:38:44;;;;;;;36.20;30.67;;;;;;;-4.79;100.00;96479.63;5085394;28;20048;-73
2023/01/24 00:41:09;;;;;;;88.40;73.25;;;;;;;-4.81;100.00;96468.53;5079456;28;20020;-73
2023/01/24 00:43:35;;;;;;;49.83;42.95;;;;;;;-4.78;100.00;96474.47;5077829;28;20024;-73
2023/01/24 00:46:00;;;;;;;45.45;40.28;;;;;;;-4.70;100.00;96494.88;5087075;28;20042;-72
2023/01/24 00:48:26;;;;;;;46.20;37.60;;;;;;;-4.63;100.00;96501.59;5084373;28;20035;-72
2023/01/24 00:50:51;;;;;;;37.08;31.35;;;;;;;-4.65;100.00;96487.06;5084990;28;20029;-73
2023/01/24 00:53:19;;;;;;;37.00;32.45;;;;;;;-4.76;100.00;96494.97;5083989;28;20443;-72
2023/01/24 00:55:46;;;;;;;40.50;35.53;;;;;;;-4.86;100.00;96496.03;5085343;28;20069;-69
2023/01/24 00:58:12;;;;;;;56.10;46.55;;;;;;;-4.92;100.00;96502.97;5082704;28;20027;-72
2023/01/24 01:00:39;;;;;;;46.42;38.63;;;;;;;-4.94;100.00;96501.31;5086809;28;20024;-62
2023/01/24 01:03:06;;;;;;;41.00;35.15;;;;;;;-4.80;100.00;96506.19;5085828;28;20024;-62
2023/01/24 01:05:32;;;;;;;38.83;34.55;;;;;;;-5.01;100.00;96510.00;5085137;28;20012;-62
2023/01/24 01:07:57;;;;;;;39.33;34.05;;;;;;;-5.08;100.00;96525.53;5091835;28;20421;-62
2023/01/24 01:10:23;;;;;;;39.97;34.42;;;;;;;-5.09;100.00;96517.84;5086645;28;20021;-62
2023/01/24 01:12:48;;;;;;;35.03;31.02;;;;;;;-5.14;100.00;96517.91;5083742;28;20129;-62
2023/01/24 01:15:13;;;;;;;33.35;28.23;;;;;;;-5.22;100.00;96518.03;5084137;28;20028;-66
2023/01/24 01:17:39;;;;;;;35.65;30.42;;;;;;;-5.28;100.00;96523.25;5085761;28;20020;-60
2023/01/24 01:20:05;;;;;;;35.15;29.73;;;;;;;-5.29;100.00;96521.56;5076200;28;20905;-61
2023/01/24 01:22:30;;;;;;;36.90;30.70;;;;;;;-5.27;100.00;96524.13;5075702;28;20630;-61
2023/01/24 01:24:55;;;;;;;37.75;31.45;;;;;;;-5.28;100.00;96523.25;5073550;28;20103;-61
2023/01/24 01:27:21;;;;;;;36.08;31.25;;;;;;;-5.33;100.00;96522.50;5083916;28;20099;-61
2023/01/24 01:29:46;;;;;;;34.95;29.98;;;;;;;-5.41;100.00;96525.19;5081567;28;20423;-61
2023/01/24 01:32:11;;;;;;;34.72;28.75;;;;;;;-5.38;100.00;96519.16;5078144;28;20133;-60
2023/01/24 01:34:37;;;;;;;31.52;28.15;;;;;;;-5.27;100.00;96524.13;5081149;28;20048;-63
2023/01/24 01:37:02;;;;;;;31.50;26.00;;;;;;;-5.39;100.00;96523.44;5083268;28;20023;-72
2023/01/24 01:39:28;;;;;;;31.30;28.00;;;;;;;-5.40;100.00;96528.63;5084072;28;20036;-61
2023/01/24 01:41:53;;;;;;;30.98;26.08;;;;;;;-5.30;100.00;96524.19;5085223;28;20113;-61
2023/01/24 01:44:41;;;;;;;30.65;27.25;;;;;;;-5.49;100.00;96535.56;5080191;28;20057;-61
2023/01/24 01:47:18;;;;;;;32.55;29.02;;;;;;;-5.59;100.00;96535.72;5087189;28;20028;-61
2023/01/24 01:49:51;;;;;;;30.52;27.27;;;;;;;-5.67;100.00;96521.31;5086153;28;20028;-61
2023/01/24 01:52:18;;;;;;;38.95;30.48;;;;;;;-5.70;100.00;96515.34;5080364;28;20033;-61
2023/01/24 01:54:46;;;;;;;43.70;34.88;;;;;;;-5.71;100.00;96531.63;5089617;28;20090;-67
2023/01/24 01:57:16;;;;;;;37.55;32.40;;;;;;;-5.75;100.00;96536.81;5083867;28;20035;-71
2023/01/24 01:59:48;;;;;;;35.80;30.27;;;;;;;-5.69;100.00;96537.56;5081002;28;20016;-66
2023/01/24 02:02:14;;;;;;;38.60;32.72;;;;;;;-5.61;100.00;96540.91;5078372;28;20024;-66
2023/01/24 02:04:48;;;;;;;35.17;30.48;;;;;;;-5.76;100.00;96535.09;5083245;28;20390;-66
2023/01/24 02:07:21;;;;;;;35.08;29.40;;;;;;;-5.87;100.00;96544.66;5082144;28;20028;-67
2023/01/24 02:09:50;;;;;;;33.72;28.33;;;;;;;-5.88;100.00;96548.09;5087673;28;20091;-66
2023/01/24 02:12:37;;;;;;;31.73;26.92;;;;;;;-5.84;100.00;96543.78;5083445;28;20032;-67
2023/01/24 02:17:56;;;;;;;31.10;27.75;;;;;;;-5.72;100.00;96553.00;5085614;28;20034;-62
2023/01/24 02:20:39;;;;;;;30.05;26.83;;;;;;;-5.81;100.00;96551.41;5078794;28;20103;-62
2023/01/24 02:23:07;;;;;;;32.47;27.50;;;;;;;-5.87;100.00;96549.78;5081375;28;20036;-63
2023/01/24 02:25:50;;;;;;;30.65;26.88;;;;;;;-5.96;100.00;96557.59;5084645;28;20544;-63
2023/01/24 02:28:16;;;;;;;32.35;28.85;;;;;;;-6.00;100.00;96545.69;5086134;28;20506;-62
2023/01/24 02:30:42;;;;;;;33.17;29.65;;;;;;;-6.01;100.00;96550.00;5088821;28;20016;-62
2023/01/24 02:33:25;;;;;;;36.20;32.38;;;;;;;-6.03;100.00;96551.75;5084150;28;20039;-68
2023/01/24 02:36:08;;;;;;;33.47;29.90;;;;;;;-6.06;100.00;96555.22;5086352;28;20081;-68
2023/01/24 02:38:34;;;;;;;28.45;25.42;;;;;;;-6.08;100.00;96558.66;5087304;28;20099;-73
2023/01/24 02:41:06;;;;;;;27.83;25.02;;;;;;;-6.05;100.00;96571.44;5082287;28;20043;-74
2023/01/24 02:43:36;;;;;;;28.02;25.00;;;;;;;-6.03;100.00;96568.84;5085134;28;20024;-73
2023/01/24 02:46:02;;;;;;;28.55;25.50;;;;;;;-6.05;100.00;96568.88;5087300;28;20028;-72
2023/01/24 02:48:27;;;;;;;32.00;28.80;;;;;;;-6.04;100.00;96562.88;5086800;28;20032;-74
2023/01/24 02:53:39;;;;;;;29.17;26.25;;;;;;;-6.07;100.00;96553.50;5076922;28;20047;-65
2023/01/24 02:58:50;;;;;;;29.60;26.33;;;;;;;-6.06;100.00;96585.13;5080381;28;20037;-64
2023/01/24 03:01:16;;;;;;;28.17;25.27;;;;;;;-6.10;100.00;96568.91;5085216;28;20036;-64
2023/01/24 03:03:43;;;;;;;28.23;25.33;;;;;;;-6.13;100.00;96556.13;5078242;28;20021;-65
2023/01/24 03:06:10;;;;;;;26.52;23.83;;;;;;;-6.14;100.00;96564.69;5079184;28;20028;-64
2023/01/24 03:08:36;;;;;;;27.77;25.08;;;;;;;-6.19;100.00;96566.47;5088064;28;20024;-65
2023/01/24 03:11:03;;;;;;;26.58;23.80;;;;;;;-6.20;100.00;96563.03;5083462;28;20020;-65
2023/01/24 03:35:22;;;;;;;26.83;23.95;;;;;;;-6.24;100.00;96578.50;5082314;28;20573;-74
2023/01/24 03:40:32;;;;;;;27.05;24.27;;;;;;;-6.38;100.00;96574.38;5081657;28;20018;-74
2023/01/24 03:42:59;;;;;;;31.02;24.95;;;;;;;-6.42;100.00;96580.41;5077845;28;20029;-74
2023/01/24 03:45:28;;;;;;;28.17;25.00;;;;;;;-6.40;100.00;96578.66;5089395;28;20024;-74
2023/01/24 03:47:55;;;;;;;28.88;25.33;;;;;;;-6.40;100.00;96576.09;5083959;28;20116;-73
2023/01/24 03:53:09;;;;;;;26.27;23.48;;;;;;;-6.46;100.00;96573.63;5073426;28;20576;-64
2023/01/24 03:55:35;;;;;;;26.00;23.27;;;;;;;-6.53;100.00;96564.28;5076267;28;20103;-64
2023/01/24 03:58:01;;;;;;;28.90;25.83;;;;;;;-6.55;100.00;96576.25;5085774;28;20596;-65
2023/01/24 04:00:26;;;;;;;25.20;22.50;;;;;;;-6.51;100.00;96585.63;5076064;28;20070;-64
2023/01/24 04:02:53;;;;;;;26.60;23.80;;;;;;;-6.50;100.00;96593.28;5082199;28;20102;-64
2023/01/24 04:05:20;;;;;;;28.67;24.90;;;;;;;-6.51;100.00;96594.16;5085135;28;20449;-64
2023/01/24 04:07:45;;;;;;;27.35;24.45;;;;;;;-6.56;100.00;96587.38;5088403;28;20070;-64
2023/01/24 04:10:11;;;;;;;27.08;24.25;;;;;;;-6.62;100.00;96593.44;5088939;28;20035;-72
2023/01/24 04:12:36;;;;;;;34.80;25.27;;;;;;;-6.64;100.00;96590.00;5089330;28;20044;-64
2023/01/24 04:15:02;;;;;;;27.25;24.15;;;;;;;-6.62;100.00;96604.50;5088954;28;20031;-65
2023/01/24 04:17:27;;;;;;;28.70;24.02;;;;;;;-6.61;100.00;96602.81;5089786;28;20555;-64
2023/01/24 04:19:53;;;;;;;26.35;23.52;;;;;;;-6.56;100.00;96611.28;5089229;28;20115;-64
2023/01/24 04:22:18;;;;;;;26.30;23.63;;;;;;;-6.62;100.00;96596.81;5089247;28;20036;-64
2023/01/24 04:24:44;;;;;;;26.92;24.02;;;;;;;-6.62;100.00;96596.00;5089053;28;20020;-65
2023/01/24 04:27:10;;;;;;;26.25;23.55;;;;;;;-6.63;100.00;96595.13;5089489;28;20024;-65
2023/01/24 04:29:36;;;;;;;25.45;22.75;;;;;;;-6.67;100.00;96593.47;5089289;28;20024;-73
2023/01/24 04:32:01;;;;;;;25.88;23.10;;;;;;;-6.66;100.00;96595.16;5091697;28;20091;-72
2023/01/24 04:34:26;;;;;;;24.08;21.67;;;;;;;-6.68;100.00;96596.88;5093126;28;20185;-72
2023/01/24 04:36:52;;;;;;;25.88;23.10;;;;;;;-6.70;100.00;96598.63;5092663;28;20028;-72
2023/01/24 04:39:17;;;;;;;27.30;24.40;;;;;;;-6.69;100.00;96594.34;5093352;28;20528;-71
2023/01/24 04:41:42;;;;;;;45.78;37.75;;;;;;;-6.67;100.00;96595.16;5092706;28;20024;-72
2023/01/24 04:44:08;;;;;;;89.07;73.97;;;;;;;-6.65;100.00;96596.00;5093386;28;20028;-72
2023/01/24 04:46:33;;;;;;;47.17;36.33;;;;;;;-6.69;100.00;96594.34;5092783;28;20071;-72
2023/01/24 04:48:58;;;;;;;47.92;40.85;;;;;;;-6.72;100.00;96596.94;5076807;28;20115;-64
2023/01/24 04:51:24;;;;;;;40.28;35.90;;;;;;;-6.72;100.00;96602.03;5094226;28;20142;-62
2023/01/24 04:53:49;;;;;;;35.72;30.38;;;;;;;-6.67;100.00;96601.16;5092843;28;20027;-62
2023/01/24 04:56:14;;;;;;;36.65;31.25;;;;;;;-6.72;100.00;96602.03;5074460;28;20028;-62
2023/01/24 04:58:40;;;;;;;31.90;28.23;;;;;;;-6.74;100.00;96602.09;5092551;28;20046;-62
2023/01/24 05:01:05;;;;;;;29.98;26.40;;;;;;;-6.73;100.00;96598.66;5092287;28;20020;-63
2023/01/24 05:03:30;;;;;;;27.85;24.15;;;;;;;-6.65;100.00;96603.69;5092887;28;20048;-62
2023/01/24 05:05:56;;;;;;;28.73;25.77;;;;;;;-6.63;100.00;96599.41;5091982;28;20478;-62
2023/01/24 05:08:21;;;;;;;29.08;25.85;;;;;;;-6.62;100.00;96608.81;5092589;28;20031;-64
2023/01/24 05:10:48;;;;;;;28.48;25.67;;;;;;;-6.67;100.00;96608.84;5092550;28;20051;-72
2023/01/24 05:13:13;;;;;;;27.48;24.77;;;;;;;-6.70;100.00;96608.88;5092166;28;20042;-73
2023/01/24 05:15:45;;;;;;;27.17;23.67;;;;;;;-6.68;100.00;96617.38;5092575;28;20515;-73
2023/01/24 05:18:11;;;;;;;27.10;24.55;;;;;;;-6.65;100.00;96613.94;5091908;28;20058;-75
2023/01/24 05:20:36;;;;;;;26.02;23.50;;;;;;;-6.62;100.00;96613.94;5092346;28;20024;-74
2023/01/24 05:23:01;;;;;;;27.23;24.50;;;;;;;-6.60;100.00;96616.44;5092682;28;20024;-73
2023/01/24 05:25:27;;;;;;;28.83;25.80;;;;;;;-6.62;100.00;96613.94;5092140;28;20069;-74
2023/01/24 05:27:52;;;;;;;28.15;25.00;;;;;;;-6.70;100.00;96608.88;5091971;28;20019;-65
2023/01/24 05:30:17;;;;;;;28.20;25.25;;;;;;;-6.73;100.00;96605.47;5091967;28;20020;-68
2023/01/24 05:32:43;;;;;;;26.17;23.38;;;;;;;-6.74;100.00;96614.03;5073581;28;20042;-68
2023/01/24 05:35:09;;;;;;;25.15;22.52;;;;;;;-6.73;100.00;96620.84;5091602;28;20066;-68
2023/01/24 05:37:38;;;;;;;27.25;24.20;;;;;;;-6.73;100.00;96618.28;5092034;28;20044;-68
2023/01/24 05:40:04;;;;;;;24.92;22.50;;;;;;;-6.79;100.00;96620.03;5092274;28;20055;-68
2023/01/24 05:42:31;;;;;;;26.10;23.20;;;;;;;-6.79;100.00;96629.41;5090801;28;20056;-67
2023/01/24 05:44:56;;;;;;;25.73;23.15;;;;;;;-6.80;100.00;96620.03;5091683;28;20168;-68
2023/01/24 05:47:22;;;;;;;30.58;26.60;;;;;;;-6.81;100.00;96632.00;5091529;28;20036;-71
2023/01/24 05:49:47;;;;;;;31.33;28.05;;;;;;;-6.82;100.00;96644.81;5095343;28;20030;-71
2023/01/24 05:52:18;;;;;;;37.30;28.58;;;;;;;-6.84;100.00;96644.84;5073369;28;20026;-72
2023/01/24 05:54:43;;;;;;;34.22;30.08;;;;;;;-6.81;100.00;96646.50;5091676;28;20024;-72
2023/01/24 05:57:09;;;;;;;35.90;29.48;;;;;;;-6.83;100.00;96655.94;5091900;28;20026;-73
2023/01/24 05:59:34;;;;;;;30.42;27.23;;;;;;;-6.92;100.00;96673.06;5091742;28;20023;-73
2023/01/24 06:02:00;;;;;;;31.77;27.52;;;;;;;-6.98;100.00;96662.03;5091376;28;20048;-72
2023/01/24 06:04:25;;;;;;;31.25;27.98;;;;;;;-7.02;100.00;96662.91;5091473;28;20481;-73
2023/01/24 06:06:50;;;;;;;31.50;28.25;;;;;;;-7.05;100.00;96656.09;5090073;28;20039;-73
2023/01/24 06:09:15;;;;;;;33.92;29.95;;;;;;;-6.74;100.00;96652.44;5091112;28;20023;-68
2023/01/24 06:11:41;;;;;;;52.50;37.25;;;;;;;-6.85;100.00;96658.53;5091072;28;20484;-68
2023/01/24 06:14:06;;;;;;;66.25;47.47;;;;;;;-6.84;100.00;96664.47;5091546;28;20127;-68
2023/01/24 06:16:32;;;;;;;62.35;46.78;;;;;;;-6.85;100.00;96661.06;5091091;28;20449;-68
2023/01/24 06:18:57;;;;;;;60.08;45.05;;;;;;;-6.87;100.00;96659.38;5090936;28;21243;-68
2023/01/24 06:21:45;;;;;;;60.33;44.65;;;;;;;-6.92;100.00;96677.34;5091085;28;20028;-68
2023/01/24 06:24:23;;;;;;;59.45;45.40;;;;;;;-6.98;100.00;96685.91;5090862;28;20112;-73
2023/01/24 06:26:50;;;;;;;63.00;45.83;;;;;;;-7.00;100.00;96679.94;5091016;28;20034;-65
2023/01/24 06:29:17;;;;;;;67.25;49.60;;;;;;;-7.01;100.00;96685.94;5090446;28;20016;-61
2023/01/24 06:32:16;;;;;;;71.85;49.33;;;;;;;-7.01;100.00;96705.56;5091013;28;20057;-62
2023/01/24 06:35:15;;;;;;;71.93;51.80;;;;;;;-7.04;100.00;96711.56;5086610;28;20020;-61
2023/01/24 06:37:50;;;;;;;73.35;50.05;;;;;;;-7.12;100.00;96708.19;5084712;28;20048;-61
2023/01/24 06:40:23;;;;;;;78.07;53.65;;;;;;;-7.23;100.00;96710.81;5086541;28;20040;-61
2023/01/24 06:42:49;;;;;;;69.93;51.50;;;;;;;-7.20;100.00;96708.25;5082636;28;20032;-62
2023/01/24 06:45:15;;;;;;;70.25;52.50;;;;;;;-7.13;100.00;96712.44;5087633;28;20031;-73
2023/01/24 06:47:42;;;;;;;69.15;52.20;;;;;;;-7.12;100.00;96731.25;5081946;28;20471;-72
2023/01/24 06:50:13;;;;;;;100.97;68.75;;;;;;;-7.11;100.00;96718.41;5082863;28;20047;-74
2023/01/24 06:52:38;;;;;;;96.22;67.95;;;;;;;-7.17;100.00;96726.13;5078303;28;20032;-73
2023/01/24 06:55:04;;;;;;;94.75;61.10;;;;;;;-7.17;100.00;96728.69;5082790;28;20148;-71
2023/01/24 06:57:30;;;;;;;87.88;61.05;;;;;;;-7.20;100.00;96731.28;5084510;28;20028;-72
2023/01/24 06:59:55;;;;;;;80.10;60.95;;;;;;;-7.22;100.00;96738.94;5084888;28;20440;-74
2023/01/24 07:02:20;;;;;;;77.80;57.00;;;;;;;-7.23;100.00;96733.84;5086548;28;20012;-63
2023/01/24 07:04:46;;;;;;;89.65;63.58;;;;;;;-7.26;100.00;96734.72;5089007;28;20046;-62
2023/01/24 07:07:11;;;;;;;84.70;58.03;;;;;;;-7.21;100.00;96748.31;5087280;28;20019;-60
2023/01/24 07:09:36;;;;;;;92.43;61.38;;;;;;;-7.20;100.00;96747.47;5086917;28;20123;-60
2023/01/24 07:12:02;;;;;;;78.55;58.08;;;;;;;-7.17;100.00;96756.84;5087116;28;20012;-61
2023/01/24 07:14:27;;;;;;;78.00;52.13;;;;;;;-7.20;100.00;96752.59;5089097;28;20031;-61
2023/01/24 07:16:55;;;;;;;56.20;43.80;;;;;;;-7.20;100.00;96762.00;5080615;28;20060;-60
2023/01/24 07:19:21;;;;;;;53.60;43.75;;;;;;;-7.19;100.00;96758.56;5077816;28;20027;-60
2023/01/24 07:21:47;;;;;;;51.72;40.45;;;;;;;-7.15;100.00;96760.25;5087747;28;20023;-64
2023/01/24 07:24:16;;;;;;;52.90;42.10;;;;;;;-7.13;100.00;96768.78;5083173;28;20025;-63
2023/01/24 07:26:42;;;;;;;52.30;42.00;;;;;;;-7.10;100.00;96775.59;5082610;28;20047;-60
2023/01/24 07:29:07;;;;;;;61.10;46.88;;;;;;;-7.07;100.00;96779.00;5080042;28;20059;-61
2023/01/24 07:31:33;;;;;;;98.75;74.80;;;;;;;-7.06;100.00;96785.81;5085820;28;20512;-61
2023/01/24 07:33:58;;;;;;;98.88;70.20;;;;;;;-7.03;100.00;96790.06;5078743;28;20032;-60
2023/01/24 07:36:23;;;;;;;76.50;58.90;;;;;;;-7.03;100.00;96795.19;5085160;28;20052;-60
2023/01/24 07:38:53;;;;;;;75.45;59.30;;;;;;;-7.00;100.00;96791.75;5082818;28;20047;-60
2023/01/24 07:41:18;;;;;;;74.93;58.38;;;;;;;-6.98;100.00;96788.31;5079059;28;20046;-66
2023/01/24 07:43:43;;;;;;;80.18;61.50;;;;;;;-6.95;100.00;96796.00;5082981;28;20099;-69
2023/01/24 07:46:09;;;;;;;95.97;69.68;;;;;;;-6.92;100.00;96793.44;5084903;28;20405;-64
2023/01/24 07:48:35;;;;;;;78.40;60.58;;;;;;;-6.92;100.00;96807.94;5083537;28;20444;-62
2023/01/24 07:51:00;;;;;;;75.75;59.67;;;;;;;-6.95;100.00;96819.06;5088694;28;20512;-63
2023/01/24 07:53:26;;;;;;;70.13;47.15;;;;;;;-6.94;100.00;96815.63;5081374;28;20028;-63
2023/01/24 07:55:51;;;;;;;56.63;45.20;;;;;;;-6.91;100.00;96814.75;5087136;28;20066;-63
2023/01/24 07:58:16;;;;;;;57.05;42.92;;;;;;;-6.86;100.00;96823.25;5080981;28;20500;-63
2023/01/24 08:00:44;;;;;;;52.15;40.65;;;;;;;-6.82;100.00;96830.09;5085130;28;20020;-62
2023/01/24 08:03:10;;;;;;;62.20;47.13;;;;;;;-6.76;100.00;96841.97;5083542;28;20023;-60
2023/01/24 08:05:38;;;;;;;72.82;56.10;;;;;;;-6.66;100.00;96840.22;5087619;28;20020;-62
2023/01/24 08:08:04;;;;;;;88.93;69.22;;;;;;;-6.56;100.00;96831.66;5085704;28;20020;-63
2023/01/24 08:10:29;;;;;;;93.07;68.93;;;;;;;-6.45;100.00;96839.25;5087031;28;20482;-62
2023/01/24 08:12:56;;;;;;;109.45;75.60;;;;;;;-6.35;100.00;96840.06;5081968;28;20020;-63
2023/01/24 08:15:21;;;;;;;91.65;63.95;;;;;;;-6.26;100.00;96850.22;5078169;28;20074;-64
2023/01/24 08:17:47;;;;;;;73.72;56.78;;;;;;;-6.23;100.00;96860.47;5087429;28;20032;-63
2023/01/24 08:20:12;;;;;;;58.75;47.88;;;;;;;-6.16;100.00;96852.75;5082480;28;20028;-66
2023/01/24 08:22:39;;;;;;;61.60;46.85;;;;;;;-6.11;100.00;96846.69;5072729;28;20020;-78
2023/01/24 08:25:05;;;;;;;58.05;46.03;;;;;;;-6.04;100.00;96847.50;5076732;28;20036;-63
2023/01/24 08:27:30;;;;;;;60.38;44.78;;;;;;;-5.97;100.00;96855.97;5080538;28;20406;-63
2023/01/24 08:29:56;;;;;;;59.15;43.55;;;;;;;-5.85;100.00;96857.59;5084523;28;20526;-62
2023/01/24 08:32:21;;;;;;;66.30;52.17;;;;;;;-5.73;100.00;96859.19;5084180;28;20031;-63
2023/01/24 08:34:46;;;;;;;75.22;57.55;;;;;;;-5.71;100.00;96866.03;5086143;28;20020;-63
2023/01/24 08:37:12;;;;;;;81.30;62.75;;;;;;;-5.62;100.00;96850.53;5085514;28;20449;-62
2023/01/24 08:39:37;;;;;;;52.83;43.72;;;;;;;-5.60;100.00;96847.97;5082442;28;20031;-76
2023/01/24 08:42:02;;;;;;;60.35;51.47;;;;;;;-5.48;100.00;96840.13;5079179;28;20020;-73
2023/01/24 08:44:28;;;;;;;73.10;57.55;;;;;;;-5.46;100.00;96853.78;5087234;28;20027;-66
2023/01/24 08:46:53;;;;;;;64.38;53.42;;;;;;;-5.38;100.00;96855.44;5083511;28;20397;-65
2023/01/24 08:49:18;;;;;;;63.85;49.20;;;;;;;-5.29;100.00;96850.19;5084364;28;20019;-65
2023/01/24 08:51:44;;;;;;;62.50;52.10;;;;;;;-5.28;100.00;96844.19;5085312;28;20405;-65
2023/01/24 08:54:10;;;;;;;53.92;48.00;;;;;;;-5.19;100.00;96853.53;5082716;28;20069;-65
2023/01/24 08:56:35;;;;;;;51.90;45.38;;;;;;;-5.01;100.00;96851.63;5083965;28;20031;-65
2023/01/24 08:59:01;;;;;;;58.88;48.40;;;;;;;-4.82;100.00;96853.09;5073229;28;20040;-63
2023/01/24 09:01:26;;;;;;;51.60;45.35;;;;;;;-4.60;100.00;96870.81;5079245;28;20042;-63
2023/01/24 09:03:54;;;;;;;50.47;41.60;;;;;;;-4.37;100.00;96870.47;5079253;28;20486;-62
2023/01/24 09:06:20;;;;;;;81.18;60.95;;;;;;;-4.25;100.00;96882.31;5085280;28;20020;-62
2023/01/24 09:08:46;;;;;;;59.90;46.25;;;;;;;-4.12;100.00;96874.41;5085947;28;20105;-63
2023/01/24 09:11:11;;;;;;;52.88;42.17;;;;;;;-3.96;100.00;96880.19;5083945;28;20028;-63
2023/01/24 09:13:36;;;;;;;69.13;49.30;;;;;;;-3.83;100.00;96878.25;5086785;28;20048;-63
2023/01/24 09:16:02;;;;;;;91.95;64.50;;;;;;;-3.81;100.00;96882.53;5082151;28;20028;-63
2023/01/24 09:18:27;;;;;;;90.72;67.63;;;;;;;-3.77;100.00;96886.72;5077513;28;20017;-61
2023/01/24 09:20:53;;;;;;;48.08;39.95;;;;;;;-3.61;100.00;96883.91;5079411;28;20039;-60
2023/01/24 09:23:18;;;;;;;55.40;40.67;;;;;;;-3.53;100.00;96897.50;5079533;28;20031;-62
2023/01/24 09:25:51;;;;;;;50.85;41.60;;;;;;;-3.40;100.00;96893.00;5073063;28;20031;-63
2023/01/24 09:28:19;;;;;;;53.28;44.67;;;;;;;-3.19;100.00;96896.91;5078880;28;20020;-62
2023/01/24 09:30:48;;;;;;;45.58;38.97;;;;;;;-3.26;100.00;96889.31;5086484;28;20021;-62
2023/01/24 09:33:16;;;;;;;54.67;45.78;;;;;;;-3.29;100.00;96899.69;5083362;28;20039;-63
2023/01/24 09:35:42;;;;;;;46.55;39.80;;;;;;;-3.19;100.00;96906.38;5076196;28;20024;-62
2023/01/24 09:38:08;;;;;;;57.47;45.05;;;;;;;-2.75;100.00;96912.41;5080194;28;20070;-73
2023/01/24 09:40:45;;;;;;;38.28;33.55;;;;;;;-2.20;100.00;96904.41;5079665;28;20041;-61
2023/01/24 09:43:48;;;;;;;33.38;29.85;;;;;;;-1.78;98.62;96905.16;5086208;28;20088;-60
2023/01/24 09:46:24;;;;;;;43.00;38.10;;;;;;;-1.47;96.37;96901.88;5082699;28;20401;-60
2023/01/24 09:48:52;;;;;;;;;;;;;;;-1.30;94.74;96906.59;5085012;28;20032;-61
2023/01/24 09:51:25;;;;;;;39.22;35.17;;;;;;;-0.97;94.08;96908.34;5090179;28;19912;-60
2023/01/24 09:53:54;;;;;;;51.75;45.78;;;;;;;-0.75;91.53;96904.28;5081112;28;20120;-60
2023/01/24 09:56:33;;;;;;;30.92;27.65;;;;;;;-0.54;90.27;96907.16;5088321;28;20027;-64
2023/01/24 09:59:20;;;;;;;25.95;23.25;;;;;;;-0.42;85.17;96907.72;5089847;28;20688;-71
2023/01/24 10:01:51;;;;;;;24.88;22.33;;;;;;;-0.19;84.86;96900.13;5082296;28;20099;-64
2023/01/24 10:04:16;;;;;;;25.02;22.45;;;;;;;0.02;85.68;96908.13;5089006;28;20085;-64
2023/01/24 10:06:53;;;;;;;25.23;22.63;;;;;;;-0.05;84.55;96904.88;5088543;28;20032;-64
2023/01/24 10:09:32;;;;;;;26.00;23.42;;;;;;;-0.10;83.88;96895.53;5100611;28;20036;-64
2023/01/24 10:12:17;;;;;;;29.73;26.73;;;;;;;-0.29;84.67;96906.44;5084695;28;20024;-64
2023/01/24 10:15:01;;;;;;;31.20;28.10;;;;;;;-0.45;83.35;96900.88;5084455;28;20092;-64
2023/01/24 10:17:54;;;;;;;23.20;20.98;;;;;;;-0.39;84.40;96895.50;5075171;28;20028;-66
2023/01/24 10:21:01;;;;;;;20.85;18.85;;;;;;;-0.59;81.36;96896.09;5074164;28;20020;-62
2023/01/24 10:23:32;;;;;;;22.90;20.58;;;;;;;-0.53;82.75;96892.50;5077657;28;20043;-62
2023/01/24 10:26:16;;;;;;;28.35;25.63;;;;;;;-0.75;82.71;96891.34;5073616;28;20016;-62
2023/01/24 10:28:48;;;;;;;25.20;22.50;;;;;;;-0.80;83.24;96887.19;5081341;28;20515;-61
2023/01/24 10:31:19;;;;;;;25.88;23.08;;;;;;;-0.54;83.64;96885.63;5085276;28;20522;-61
2023/01/24 10:33:47;;;;;;;27.08;21.42;;;;;;;-0.70;82.73;96886.06;5079346;28;20024;-61
2023/01/24 10:36:19;;;;;;;26.30;23.60;;;;;;;-0.87;83.22;96889.94;5086000;28;20032;-75
2023/01/24 10:38:44;;;;;;;26.60;23.83;;;;;;;-0.91;83.49;96893.53;5085471;28;20067;-63
2023/01/24 10:41:18;;;;;;;30.42;27.15;;;;;;;-0.56;83.62;96892.56;5087192;28;20478;-63
2023/01/24 10:43:48;;;;;;;26.48;23.92;;;;;;;-0.27;82.71;96893.47;5086000;28;20027;-63
2023/01/24 10:46:50;;;;;;;27.08;23.05;;;;;;;-0.20;82.24;96893.25;5084482;28;20029;-63
2023/01/24 10:49:35;;;;;;;22.98;20.58;;;;;;;-0.33;80.59;96885.00;5066396;28;20489;-63
2023/01/24 10:52:16;;;;;;;25.80;23.10;;;;;;;-0.56;82.00;96887.38;5079703;28;20715;-63
2023/01/24 10:54:49;;;;;;;25.83;22.90;;;;;;;-0.60;82.30;96890.06;5085077;28;20016;-71
2023/01/24 10:57:42;;;;;;;27.58;24.77;;;;;;;-0.47;82.91;96889.72;5082985;28;20046;-60
2023/01/24 11:00:30;;;;;;;25.45;22.42;;;;;;;-0.30;81.65;96902.16;5083634;28;20053;-74
2023/01/24 11:03:04;;;;;;;25.00;22.33;;;;;;;-0.54;83.17;96891.63;5085870;28;20027;-73
2023/01/24 11:05:49;;;;;;;27.70;22.85;;;;;;;-0.69;83.58;96887.75;5083876;28;20031;-74
2023/01/24 11:08:35;;;;;;;25.40;22.80;;;;;;;-0.80;84.58;96884.59;5087384;28;20059;-73
2023/01/24 11:11:02;;;;;;;26.45;23.42;;;;;;;-0.91;84.51;96884.91;5083275;28;20024;-73
2023/01/24 11:13:36;;;;;;;26.67;24.05;;;;;;;-0.77;84.24;96874.19;5084654;28;20502;-74
2023/01/24 11:16:05;;;;;;;27.20;24.20;;;;;;;-0.58;83.13;96879.69;5085587;28;20035;-74
2023/01/24 11:18:33;;;;;;;27.98;24.98;;;;;;;-0.68;82.71;96873.94;5083341;28;20027;-61
2023/01/24 11:21:04;;;;;;;26.65;23.92;;;;;;;-0.86;84.04;96875.31;5080816;28;20394;-62
2023/01/24 11:23:30;;;;;;;27.60;24.65;;;;;;;-0.72;83.51;96877.50;5076209;28;20032;-62
2023/01/24 11:26:01;;;;;;;26.77;23.98;;;;;;;-0.26;83.21;96867.53;5079207;28;20024;-62
2023/01/24 11:28:27;;;;;;;25.42;22.83;;;;;;;0.02;80.44;96866.69;5078902;28;20025;-62
2023/01/24 11:30:55;;;;;;;25.15;22.55;;;;;;;-0.17;79.82;96861.22;5076301;28;20024;-62
2023/01/24 11:33:58;;;;;;;27.13;23.67;;;;;;;0.01;80.10;96866.72;5081345;28;20031;-62
2023/01/24 11:36:39;;;;;;;26.63;23.92;;;;;;;0.30;79.70;96862.34;5073944;28;20013;-73
2023/01/24 11:39:16;;;;;;;26.20;23.52;;;;;;;0.62;78.75;96868.22;5081729;28;20047;-73
2023/01/24 11:42:28;;;;;;;25.73;23.13;;;;;;;1.06;75.95;96862.41;5083111;28;20045;-74
2023/01/24 11:44:54;;;;;;;26.20;23.40;;;;;;;1.16;75.40;96849.94;5051190;28;20046;-74
2023/01/24 11:47:26;;;;;;;24.52;22.10;;;;;;;1.36;71.05;96849.25;5085743;28;20063;-74
2023/01/24 11:49:54;;;;;;;26.63;23.85;;;;;;;1.43;72.90;96846.34;5086600;28;20389;-74
2023/01/24 11:52:28;;;;;;;27.73;24.90;;;;;;;1.62;72.11;96840.44;5085948;28;20024;-73
2023/01/24 11:55:17;;;;;;;25.98;23.38;;;;;;;2.06;68.24;96843.97;5080896;28;20029;-71
2023/01/24 11:58:18;;;;;;;22.80;20.45;;;;;;;2.24;67.79;96843.25;5085988;28;20019;-60